createdAt,value
2022-08-07T00:00:40.147Z,19.53
2022-08-07T00:03:08.793Z,19.48
2022-08-07T00:05:36.294Z,19.60
2022-08-07T00:08:04.926Z,19.43
2022-08-07T00:10:31.919Z,19.22
2022-08-07T00:13:09.637Z,19.22
2022-08-07T00:15:51.369Z,19.27
2022-08-07T00:18:24.609Z,19.18
2022-08-07T00:20:56.799Z,19.18
2022-08-07T00:23:24.298Z,19.11
2022-08-07T00:26:00.276Z,19.07
2022-08-07T00:28:33.619Z,19.04
2022-08-07T00:31:06.214Z,18.97
2022-08-07T00:33:40.312Z,19.09
2022-08-07T00:36:08.328Z,19.09
2022-08-07T00:38:36.739Z,19.09
2022-08-07T00:41:10.118Z,19.03
2022-08-07T00:44:01.924Z,18.91
2022-08-07T00:46:28.071Z,18.85
2022-08-07T00:48:54.558Z,18.86
2022-08-07T00:51:21.633Z,18.90
2022-08-07T00:53:50.786Z,18.62
2022-08-07T00:56:22.924Z,18.66
2022-08-07T00:58:49.693Z,18.67
2022-08-07T01:01:18.503Z,18.74
2022-08-07T01:03:56.379Z,18.80
2022-08-07T01:06:28.058Z,18.70
2022-08-07T01:08:55.668Z,18.69
2022-08-07T01:12:09.100Z,18.65
2022-08-07T01:14:09.772Z,18.57
2022-08-07T01:16:37.129Z,18.64
2022-08-07T01:19:18.525Z,18.72
2022-08-07T01:21:48.036Z,18.67
2022-08-07T01:24:18.773Z,18.63
2022-08-07T01:26:52.022Z,18.64
2022-08-07T01:29:19.647Z,18.58
2022-08-07T01:31:48.262Z,18.54
2022-08-07T01:34:15.633Z,18.48
2022-08-07T01:36:44.129Z,18.42
2022-08-07T01:39:11.276Z,18.42
2022-08-07T01:41:40.878Z,18.50
2022-08-07T01:44:26.122Z,18.51
2022-08-07T01:46:53.168Z,18.40
2022-08-07T01:49:21.513Z,18.50
2022-08-07T01:52:03.912Z,18.45
2022-08-07T01:54:36.967Z,18.40
2022-08-07T01:57:24.744Z,18.35
2022-08-07T01:59:57.456Z,18.27
2022-08-07T02:02:33.011Z,18.10
2022-08-07T02:05:47.751Z,18.08
2022-08-07T02:08:17.263Z,18.06
2022-08-07T02:10:55.036Z,18.09
2022-08-07T02:13:27.586Z,18.01
2022-08-07T02:16:11.998Z,18.03
2022-08-07T02:18:46.811Z,17.97
2022-08-07T02:21:16.362Z,18.02
2022-08-07T02:23:44.978Z,18.10
2022-08-07T02:26:33.960Z,18.00
2022-08-07T02:29:02.290Z,18.02
2022-08-07T02:31:29.636Z,17.97
2022-08-07T02:34:02.956Z,17.85
2022-08-07T02:36:33.883Z,17.79
2022-08-07T02:39:16.615Z,17.80
2022-08-07T02:41:50.530Z,17.77
2022-08-07T02:44:18.258Z,17.92
2022-08-07T02:46:52.718Z,17.88
2022-08-07T02:49:32.796Z,17.94
2022-08-07T02:52:12.987Z,17.82
2022-08-07T02:54:42.782Z,17.69
2022-08-07T02:57:14.255Z,17.61
2022-08-07T03:00:00.798Z,17.58
2022-08-07T03:02:28.243Z,17.54
2022-08-07T03:04:56.357Z,17.51
2022-08-07T03:07:58.991Z,17.58
2022-08-07T03:10:11.805Z,17.52
2022-08-07T03:12:41.617Z,17.49
2022-08-07T03:15:09.327Z,17.38
2022-08-07T03:17:53.640Z,17.34
2022-08-07T03:20:21.776Z,17.39
2022-08-07T03:22:50.570Z,17.38
2022-08-07T03:25:20.935Z,17.30
2022-08-07T03:28:08.797Z,17.39
2022-08-07T03:30:36.583Z,17.39
2022-08-07T03:33:07.955Z,17.31
2022-08-07T03:35:43.494Z,17.34
2022-08-07T03:38:17.893Z,17.20
2022-08-07T03:40:54.046Z,17.14
2022-08-07T03:43:26.658Z,17.15
2022-08-07T03:45:59.614Z,17.11
2022-08-07T03:48:26.994Z,17.16
2022-08-07T03:50:58.001Z,17.13
2022-08-07T03:53:50.076Z,17.21
2022-08-07T03:56:14.400Z,17.07
2022-08-07T03:59:10.156Z,17.21
2022-08-07T04:01:30.029Z,17.21
2022-08-07T04:03:59.750Z,17.18
2022-08-07T04:06:36.125Z,17.10
2022-08-07T04:09:05.646Z,17.01
2022-08-07T04:12:26.214Z,17.03
2022-08-07T04:14:38.715Z,17.05
2022-08-07T04:17:20.376Z,16.86
2022-08-07T04:19:54.917Z,16.79
2022-08-07T04:22:27.657Z,16.75
2022-08-07T04:24:58.189Z,16.83
2022-08-07T04:27:26.642Z,16.82
2022-08-07T04:30:02.113Z,16.77
2022-08-07T04:32:34.717Z,16.79
2022-08-07T04:35:07.111Z,16.83
2022-08-07T04:38:01.072Z,16.92
2022-08-07T04:40:22.693Z,16.84
2022-08-07T04:43:01.202Z,16.84
2022-08-07T04:45:57.609Z,17.03
2022-08-07T04:48:21.070Z,16.79
2022-08-07T04:51:02.280Z,16.72
2022-08-07T04:54:01.568Z,16.83
2022-08-07T04:58:10.971Z,16.93
2022-08-07T05:00:11.430Z,17.01
2022-08-07T05:02:44.593Z,17.09
2022-08-07T05:05:52.661Z,17.19
2022-08-07T05:09:00.147Z,17.13
2022-08-07T05:11:56.778Z,17.28
2022-08-07T05:14:55.035Z,17.20
2022-08-07T05:17:52.994Z,17.29
2022-08-07T05:20:17.845Z,17.28
2022-08-07T05:22:46.465Z,17.41
2022-08-07T05:25:26.296Z,17.43
2022-08-07T05:28:20.874Z,17.44
2022-08-07T05:30:52.476Z,17.56
2022-08-07T05:33:20.666Z,17.48
2022-08-07T05:35:50.651Z,17.51
2022-08-07T05:38:59.383Z,17.75
2022-08-07T05:41:12.426Z,17.85
2022-08-07T05:44:06.743Z,17.88
2022-08-07T05:46:30.977Z,17.88
2022-08-07T05:48:59.520Z,18.09
2022-08-07T05:51:26.344Z,18.32
2022-08-07T05:54:13.308Z,18.81
2022-08-07T05:56:47.300Z,19.09
2022-08-07T05:59:19.522Z,19.27
2022-08-07T06:01:49.249Z,19.24
2022-08-07T06:04:19.550Z,18.93
2022-08-07T06:06:47.569Z,19.32
2022-08-07T06:09:16.846Z,19.48
2022-08-07T06:11:44.098Z,19.63
2022-08-07T06:14:21.270Z,19.80
2022-08-07T06:16:56.301Z,20.19
2022-08-07T06:19:52.253Z,20.53
2022-08-07T06:22:22.630Z,20.79
2022-08-07T06:24:58.531Z,21.01
2022-08-07T06:27:59.926Z,21.40
2022-08-07T06:30:31.926Z,21.54
2022-08-07T06:33:01.998Z,21.81
2022-08-07T06:35:45.641Z,21.95
2022-08-07T06:38:19.859Z,21.73
2022-08-07T06:40:50.929Z,22.09
2022-08-07T06:43:23.642Z,22.32
2022-08-07T06:45:50.841Z,22.69
2022-08-07T06:48:25.075Z,22.94
2022-08-07T06:50:53.139Z,23.21
2022-08-07T06:55:30.027Z,23.07
2022-08-07T06:56:15.253Z,23.68
2022-08-07T07:00:14.775Z,23.67
2022-08-07T07:01:33.287Z,23.70
2022-08-07T07:04:32.138Z,23.80
2022-08-07T07:07:01.113Z,23.90
2022-08-07T07:09:31.222Z,24.03
2022-08-07T07:12:16.576Z,23.95
2022-08-07T07:14:58.124Z,24.93
2022-08-07T07:17:50.600Z,25.12
2022-08-07T07:20:29.645Z,25.39
2022-08-07T07:24:08.527Z,25.98
2022-08-07T07:26:35.896Z,25.79
2022-08-07T07:29:38.464Z,26.09
2022-08-07T07:31:44.510Z,26.50
2022-08-07T07:34:16.950Z,26.60
2022-08-07T07:36:47.987Z,26.18
2022-08-07T07:39:22.609Z,25.75
2022-08-07T07:42:13.250Z,26.08
2022-08-07T07:44:41.993Z,26.22
2022-08-07T07:47:22.965Z,26.52
2022-08-07T07:50:36.106Z,27.03
2022-08-07T07:52:41.004Z,27.00
2022-08-07T07:55:10.952Z,27.97
2022-08-07T07:57:51.882Z,28.18
2022-08-07T08:00:29.696Z,27.63
2022-08-07T08:03:08.276Z,28.24
2022-08-07T08:05:51.156Z,27.63
2022-08-07T08:08:35.417Z,27.81
2022-08-07T08:11:09.321Z,29.22
2022-08-07T08:13:54.549Z,28.84
2022-08-07T08:18:36.530Z,28.48
2022-08-07T08:20:18.886Z,29.50
2022-08-07T08:22:32.558Z,29.81
2022-08-07T08:25:33.024Z,30.28
2022-08-07T08:28:11.944Z,29.94
2022-08-07T08:30:51.471Z,29.68
2022-08-07T08:33:28.880Z,29.42
2022-08-07T08:36:01.619Z,30.66
2022-08-07T08:38:40.488Z,30.24
2022-08-07T08:41:57.674Z,29.75
2022-08-07T08:44:57.562Z,30.57
2022-08-07T08:47:52.087Z,30.83
2022-08-07T08:50:35.285Z,30.30
2022-08-07T08:53:06.285Z,29.79
2022-08-07T08:55:55.556Z,29.58
2022-08-07T08:58:58.047Z,29.42
2022-08-07T09:01:50.350Z,30.16
2022-08-07T09:04:36.753Z,31.10
2022-08-07T09:07:16.917Z,33.03
2022-08-07T09:09:59.957Z,32.26
2022-08-07T09:12:53.704Z,32.94
2022-08-07T09:16:24.533Z,34.67
2022-08-07T09:19:51.504Z,34.21
2022-08-07T09:24:28.666Z,35.22
2022-08-07T09:25:17.234Z,33.39
2022-08-07T09:28:05.046Z,31.88
2022-08-07T09:30:52.875Z,33.86
2022-08-07T09:33:58.021Z,32.26
2022-08-07T09:36:35.725Z,32.20
2022-08-07T09:39:53.144Z,34.49
2022-08-07T09:42:33.066Z,34.47
2022-08-07T09:47:20.398Z,36.11
2022-08-07T09:48:55.983Z,33.66
2022-08-07T09:52:16.699Z,34.62
2022-08-07T09:54:46.758Z,36.02
2022-08-07T09:57:31.647Z,36.00
2022-08-07T10:00:08.640Z,35.88
2022-08-07T10:04:06.373Z,35.29
2022-08-07T10:06:24.501Z,33.40
2022-08-07T10:09:15.356Z,32.07
2022-08-07T10:12:18.183Z,30.29
2022-08-07T10:15:18.560Z,29.93
2022-08-07T10:18:02.520Z,30.25
2022-08-07T10:21:00.624Z,29.99
2022-08-07T10:24:06.582Z,30.29
2022-08-07T10:26:33.347Z,29.93
2022-08-07T10:29:25.654Z,31.12
2022-08-07T10:32:31.597Z,30.76
2022-08-07T10:35:55.783Z,31.38
2022-08-07T10:38:49.017Z,31.84
2022-08-07T10:41:47.070Z,32.22
2022-08-07T10:44:52.450Z,31.37
2022-08-07T10:47:53.906Z,30.62
2022-08-07T10:50:36.497Z,31.23
2022-08-07T10:53:44.551Z,30.34
2022-08-07T10:56:32.916Z,31.27
2022-08-07T10:59:45.349Z,32.84
2022-08-07T11:02:33.986Z,32.49
2022-08-07T11:05:35.511Z,35.08
2022-08-07T11:08:45.783Z,36.13
2022-08-07T11:11:20.234Z,34.66
2022-08-07T11:14:45.535Z,34.05
2022-08-07T11:17:01.831Z,34.53
2022-08-07T11:19:50.215Z,35.44
2022-08-07T11:22:44.077Z,33.75
2022-08-07T11:25:42.560Z,33.34
2022-08-07T11:28:21.305Z,32.86
2022-08-07T11:30:51.296Z,31.94
2022-08-07T11:34:00.051Z,31.62
2022-08-07T11:36:49.628Z,31.20
2022-08-07T11:40:00.156Z,30.84
2022-08-07T11:42:54.376Z,31.97
2022-08-07T11:45:35.396Z,32.23
2022-08-07T11:48:30.991Z,31.98
2022-08-07T11:51:41.733Z,33.34
2022-08-07T11:54:31.506Z,33.26
2022-08-07T11:57:59.988Z,31.70
2022-08-07T12:00:28.322Z,32.57
2022-08-07T12:03:41.441Z,31.88
2022-08-07T12:06:39.009Z,31.54
2022-08-07T12:09:16.469Z,31.31
2022-08-07T12:12:12.432Z,31.27
2022-08-07T12:14:55.587Z,31.07
2022-08-07T12:17:33.767Z,30.50
2022-08-07T12:20:12.843Z,30.26
2022-08-07T12:23:08.984Z,29.82
2022-08-07T12:26:23.485Z,30.57
2022-08-07T12:29:07.182Z,30.97
2022-08-07T12:31:53.079Z,31.14
2022-08-07T12:34:34.553Z,32.24
2022-08-07T12:37:08.787Z,32.34
2022-08-07T12:39:51.275Z,32.64
2022-08-07T12:42:28.131Z,31.93
2022-08-07T12:44:58.066Z,32.46
2022-08-07T12:47:52.182Z,32.51
2022-08-07T12:50:49.314Z,32.31
2022-08-07T12:53:22.518Z,32.92
2022-08-07T12:56:05.717Z,35.48
2022-08-07T12:58:40.058Z,35.01
2022-08-07T13:01:19.515Z,36.47
2022-08-07T13:04:18.933Z,36.41
2022-08-07T13:08:11.547Z,37.31
2022-08-07T13:10:39.744Z,36.41
2022-08-07T13:13:48.017Z,34.82
2022-08-07T13:16:07.453Z,35.63
2022-08-07T13:18:44.645Z,35.96
2022-08-07T13:21:50.260Z,35.63
2022-08-07T13:24:52.398Z,36.45
2022-08-07T13:28:05.570Z,36.64
2022-08-07T13:30:19.303Z,37.84
2022-08-07T13:34:14.767Z,37.52
2022-08-07T13:36:35.372Z,36.68
2022-08-07T13:39:49.004Z,36.72
2022-08-07T13:42:10.500Z,36.51
2022-08-07T13:44:39.492Z,36.57
2022-08-07T13:47:10.589Z,36.49
2022-08-07T13:50:33.799Z,35.33
2022-08-07T13:52:41.000Z,33.87
2022-08-07T13:55:26.405Z,33.71
2022-08-07T13:58:27.632Z,33.21
2022-08-07T14:01:00.941Z,34.45
2022-08-07T14:04:09.617Z,34.58
2022-08-07T14:06:36.978Z,35.07
2022-08-07T14:09:07.284Z,35.52
2022-08-07T14:11:53.567Z,35.17
2022-08-07T14:14:33.280Z,34.20
2022-08-07T14:17:13.023Z,34.92
2022-08-07T14:20:40.778Z,35.39
2022-08-07T14:22:48.564Z,34.33
2022-08-07T14:25:16.275Z,33.79
2022-08-07T14:28:10.309Z,33.31
2022-08-07T14:30:40.743Z,32.79
2022-08-07T14:33:09.198Z,32.24
2022-08-07T14:35:44.852Z,31.53
2022-08-07T14:38:30.551Z,31.50
2022-08-07T14:44:09.941Z,32.21
2022-08-07T14:46:51.773Z,33.26
2022-08-07T14:49:57.479Z,32.95
2022-08-07T14:55:11.144Z,32.89
2022-08-07T14:57:54.590Z,33.13
2022-08-07T15:00:36.555Z,33.17
2022-08-07T15:03:17.466Z,33.96
2022-08-07T15:05:55.234Z,34.05
2022-08-07T15:08:34.893Z,33.09
2022-08-07T15:11:18.275Z,33.51
2022-08-07T15:14:10.182Z,33.96
2022-08-07T15:16:54.934Z,33.28
2022-08-07T15:20:31.468Z,32.96
2022-08-07T15:22:29.266Z,32.40
2022-08-07T15:28:32.995Z,31.55
2022-08-07T15:31:05.218Z,30.92
2022-08-07T15:39:12.403Z,31.09
2022-08-07T15:44:52.022Z,30.61
2022-08-07T15:48:01.382Z,30.31
2022-08-07T15:50:37.741Z,30.13
2022-08-07T15:53:14.937Z,29.99
2022-08-07T15:55:53.654Z,29.74
2022-08-07T15:58:38.726Z,29.46
2022-08-07T16:01:12.391Z,29.33
2022-08-07T16:03:46.638Z,29.21
2022-08-07T16:06:14.990Z,29.17
2022-08-07T16:08:45.783Z,29.20
2022-08-07T16:11:42.249Z,29.27
2022-08-07T16:14:19.288Z,29.43
2022-08-07T16:18:02.062Z,29.44
2022-08-07T16:20:33.318Z,29.48
2022-08-07T16:23:54.530Z,29.41
2022-08-07T16:26:30.722Z,29.49
2022-08-07T16:30:11.879Z,29.49
2022-08-07T16:32:25.470Z,29.47
2022-08-07T16:35:52.385Z,29.41
2022-08-07T16:38:29.582Z,29.20
2022-08-07T16:41:15.710Z,29.04
2022-08-07T16:45:04.045Z,29.09
2022-08-07T16:47:56.621Z,28.76
2022-08-07T16:51:07.368Z,28.63
2022-08-07T16:54:02.639Z,28.53
2022-08-07T16:57:01.365Z,28.28
2022-08-07T16:59:46.962Z,28.16
2022-08-07T17:02:53.564Z,28.09
2022-08-07T17:06:29.001Z,27.93
2022-08-07T17:08:51.238Z,27.86
2022-08-07T17:12:01.528Z,27.92
2022-08-07T17:14:31.013Z,27.80
2022-08-07T17:17:00.990Z,27.84
2022-08-07T17:20:02.179Z,28.03
2022-08-07T17:22:38.824Z,27.86
2022-08-07T17:25:20.188Z,27.70
2022-08-07T17:28:17.685Z,27.51
2022-08-07T17:31:00.736Z,27.27
2022-08-07T17:34:15.514Z,27.35
2022-08-07T17:36:57.856Z,27.33
2022-08-07T17:39:58.834Z,27.23
2022-08-07T17:42:35.588Z,26.94
2022-08-07T17:45:27.393Z,26.84
2022-08-07T17:48:02.613Z,26.64
2022-08-07T17:50:42.344Z,26.52
2022-08-07T17:53:55.647Z,26.51
2022-08-07T17:56:25.931Z,26.46
2022-08-07T17:58:56.867Z,26.32
2022-08-07T18:01:37.417Z,26.44
2022-08-07T18:04:30.988Z,26.41
2022-08-07T18:07:28.463Z,26.37
2022-08-07T18:12:07.027Z,26.18
2022-08-07T18:13:40.670Z,26.09
2022-08-07T18:16:13.606Z,26.00
2022-08-07T18:21:12.716Z,25.87
2022-08-07T18:22:26.235Z,25.89
2022-08-07T18:25:18.797Z,25.85
2022-08-07T18:27:58.053Z,25.64
2022-08-07T18:30:36.872Z,25.56
2022-08-07T18:33:22.253Z,25.54
2022-08-07T18:36:33.028Z,25.36
2022-08-07T18:40:05.067Z,25.19
2022-08-07T18:42:29.208Z,25.31
2022-08-07T18:45:44.818Z,25.24
2022-08-07T18:48:00.700Z,25.04
2022-08-07T18:50:45.671Z,24.95
2022-08-07T18:53:43.304Z,25.00
2022-08-07T18:56:58.283Z,25.02
2022-08-07T18:59:47.782Z,24.93
2022-08-07T19:02:51.301Z,24.73
2022-08-07T19:06:03.992Z,24.73
2022-08-07T19:08:33.986Z,24.66
2022-08-07T19:11:35.983Z,24.66
2022-08-07T19:14:16.897Z,24.56
2022-08-07T19:17:05.612Z,24.51
2022-08-07T19:19:44.163Z,24.52
2022-08-07T19:22:40.358Z,24.45
2022-08-07T19:26:23.663Z,24.29
2022-08-07T19:28:29.855Z,24.22
2022-08-07T19:31:41.499Z,24.31
2022-08-07T19:34:02.532Z,24.37
2022-08-07T19:36:34.360Z,24.39
2022-08-07T19:39:02.104Z,24.44
2022-08-07T19:42:05.750Z,24.44
2022-08-07T19:44:37.940Z,24.35
2022-08-07T19:47:11.764Z,24.28
2022-08-07T19:49:57.581Z,24.26
2022-08-07T19:52:28.055Z,24.36
2022-08-07T19:54:57.252Z,24.40
2022-08-07T19:58:00.478Z,24.29
2022-08-07T20:00:28.925Z,24.37
2022-08-07T20:03:35.646Z,24.36
2022-08-07T20:06:01.136Z,24.43
2022-08-07T20:08:31.765Z,24.44
2022-08-07T20:11:04.017Z,24.43
2022-08-07T20:13:49.806Z,24.38
2022-08-07T20:16:35.059Z,24.48
2022-08-07T20:19:05.844Z,24.39
2022-08-07T20:21:41.593Z,24.35
2022-08-07T20:24:18.568Z,24.33
2022-08-07T20:26:52.166Z,24.15
2022-08-07T20:29:49.574Z,24.09
2022-08-07T20:32:22.280Z,24.12
2022-08-07T20:34:55.954Z,23.85
2022-08-07T20:37:34.124Z,23.81
2022-08-07T20:40:33.422Z,23.97
2022-08-07T20:42:57.231Z,23.94
2022-08-07T20:45:33.807Z,23.87
2022-08-07T20:48:28.541Z,23.64
2022-08-07T20:51:00.282Z,23.39
2022-08-07T20:54:03.370Z,23.37
2022-08-07T20:56:16.528Z,23.34
2022-08-07T20:58:50.223Z,23.34
2022-08-07T21:01:20.754Z,23.31
2022-08-07T21:04:19.437Z,23.35
2022-08-07T21:06:53.170Z,23.02
2022-08-07T21:09:24.254Z,23.19
2022-08-07T21:11:57.047Z,23.13
2022-08-07T21:14:33.480Z,23.07
2022-08-07T21:18:00.903Z,22.98
2022-08-07T21:20:04.608Z,22.77
2022-08-07T21:22:39.479Z,22.82
2022-08-07T21:25:20.853Z,22.78
2022-08-07T21:28:13.695Z,22.56
2022-08-07T21:30:47.232Z,22.67
2022-08-07T21:33:41.139Z,22.50
2022-08-07T21:36:31.916Z,22.65
2022-08-07T21:39:45.494Z,22.47
2022-08-07T21:42:48.599Z,22.46
2022-08-07T21:46:08.265Z,22.42
2022-08-07T21:48:38.476Z,22.24
2022-08-07T21:51:31.990Z,22.19
2022-08-07T21:54:35.923Z,22.24
2022-08-07T21:57:51.959Z,22.22
2022-08-07T22:00:25.146Z,22.03
2022-08-07T22:03:05.604Z,21.93
2022-08-07T22:05:46.017Z,21.89
2022-08-07T22:08:19.900Z,22.08
2022-08-07T22:10:54.726Z,22.17
2022-08-07T22:13:51.261Z,22.04
2022-08-07T22:16:38.482Z,21.87
2022-08-07T22:19:42.314Z,22.01
2022-08-07T22:22:20.767Z,22.03
2022-08-07T22:25:08.190Z,22.03
2022-08-07T22:28:20.103Z,21.87
2022-08-07T22:30:58.541Z,21.87
2022-08-07T22:33:53.002Z,21.96
2022-08-07T22:36:42.708Z,21.95
2022-08-07T22:39:23.407Z,21.82
2022-08-07T22:42:03.680Z,21.84
2022-08-07T22:44:59.017Z,21.71
2022-08-07T22:47:55.273Z,21.53
2022-08-07T22:50:59.302Z,21.27
2022-08-07T22:54:05.503Z,21.18
2022-08-07T22:56:46.088Z,21.15
2022-08-07T22:59:52.055Z,20.98
2022-08-07T23:02:43.596Z,20.89
2022-08-07T23:06:10.026Z,20.84
2022-08-07T23:08:47.820Z,20.88
2022-08-07T23:11:28.038Z,20.66
2022-08-07T23:14:17.344Z,20.68
2022-08-07T23:16:55.936Z,20.79
2022-08-07T23:20:02.844Z,20.76
2022-08-07T23:22:42.521Z,20.56
2022-08-07T23:25:36.929Z,20.65
2022-08-07T23:28:22.287Z,20.61
2022-08-07T23:31:11.262Z,20.69
2022-08-07T23:34:35.434Z,20.81
2022-08-07T23:37:20.437Z,20.81
2022-08-07T23:40:10.489Z,20.63
2022-08-07T23:42:57.653Z,20.45
2022-08-07T23:46:01.291Z,20.44
2022-08-07T23:48:27.369Z,20.17
2022-08-07T23:52:55.936Z,20.15
2022-08-07T23:54:04.030Z,20.11
2022-08-07T23:56:54.434Z,20.15
